sensor_id;sensor_type;location;lat;lon;timestamp;P1;durP1;ratioP1;P2;durP2;ratioP2
67640;SDS011;54434;50.096;20.082;2023-05-07T00:00:44;17.50;;;10.20;;
67640;SDS011;54434;50.096;20.082;2023-05-07T00:03:26;17.60;;;10.00;;
67640;SDS011;54434;50.096;20.082;2023-05-07T00:06:03;24.20;;;10.20;;
67640;SDS011;54434;50.096;20.082;2023-05-07T00:08:40;19.90;;;9.80;;
67640;SDS011;54434;50.096;20.082;2023-05-07T00:11:16;19.30;;;9.90;;
67640;SDS011;54434;50.096;20.082;2023-05-07T00:13:53;17.60;;;9.80;;
67640;SDS011;54434;50.096;20.082;2023-05-07T00:16:29;19.10;;;10.70;;
67640;SDS011;54434;50.096;20.082;2023-05-07T00:19:06;20.30;;;10.60;;
67640;SDS011;54434;50.096;20.082;2023-05-07T00:21:42;18.20;;;9.90;;
67640;SDS011;54434;50.096;20.082;2023-05-07T00:24:19;15.70;;;9.20;;
67640;SDS011;54434;50.096;20.082;2023-05-07T00:26:56;25.80;;;9.90;;
67640;SDS011;54434;50.096;20.082;2023-05-07T00:29:32;15.90;;;9.40;;
67640;SDS011;54434;50.096;20.082;2023-05-07T00:32:09;16.10;;;9.30;;
67640;SDS011;54434;50.096;20.082;2023-05-07T00:34:46;18.30;;;10.40;;
67640;SDS011;54434;50.096;20.082;2023-05-07T00:37:24;16.50;;;9.50;;
67640;SDS011;54434;50.096;20.082;2023-05-07T00:40:00;17.00;;;9.40;;
67640;SDS011;54434;50.096;20.082;2023-05-07T00:42:40;15.20;;;9.40;;
67640;SDS011;54434;50.096;20.082;2023-05-07T00:45:20;23.10;;;10.70;;
67640;SDS011;54434;50.096;20.082;2023-05-07T00:48:00;23.60;;;10.90;;
67640;SDS011;54434;50.096;20.082;2023-05-07T00:50:38;21.90;;;10.90;;
67640;SDS011;54434;50.096;20.082;2023-05-07T00:53:14;22.70;;;10.60;;
67640;SDS011;54434;50.096;20.082;2023-05-07T00:55:51;17.70;;;10.90;;
67640;SDS011;54434;50.096;20.082;2023-05-07T00:58:28;18.50;;;11.50;;
67640;SDS011;54434;50.096;20.082;2023-05-07T01:01:05;20.10;;;11.10;;
67640;SDS011;54434;50.096;20.082;2023-05-07T01:03:41;21.60;;;10.70;;
67640;SDS011;54434;50.096;20.082;2023-05-07T01:06:19;20.50;;;11.20;;
67640;SDS011;54434;50.096;20.082;2023-05-07T01:08:58;18.90;;;10.30;;
67640;SDS011;54434;50.096;20.082;2023-05-07T01:11:38;20.30;;;10.10;;
67640;SDS011;54434;50.096;20.082;2023-05-07T01:14:15;17.60;;;10.50;;
67640;SDS011;54434;50.096;20.082;2023-05-07T01:16:54;17.30;;;10.10;;
67640;SDS011;54434;50.096;20.082;2023-05-07T01:19:32;19.20;;;10.80;;
67640;SDS011;54434;50.096;20.082;2023-05-07T01:22:11;22.80;;;11.40;;
67640;SDS011;54434;50.096;20.082;2023-05-07T01:24:54;23.80;;;12.10;;
67640;SDS011;54434;50.096;20.082;2023-05-07T01:27:34;25.00;;;12.20;;
67640;SDS011;54434;50.096;20.082;2023-05-07T01:30:12;18.80;;;11.50;;
67640;SDS011;54434;50.096;20.082;2023-05-07T01:32:53;22.40;;;12.00;;
67640;SDS011;54434;50.096;20.082;2023-05-07T01:35:37;19.10;;;11.50;;
67640;SDS011;54434;50.096;20.082;2023-05-07T01:38:16;21.80;;;11.80;;
67640;SDS011;54434;50.096;20.082;2023-05-07T01:40:54;22.30;;;12.00;;
67640;SDS011;54434;50.096;20.082;2023-05-07T01:43:32;21.30;;;11.30;;
67640;SDS011;54434;50.096;20.082;2023-05-07T01:46:09;20.30;;;11.20;;
67640;SDS011;54434;50.096;20.082;2023-05-07T01:48:48;22.60;;;12.00;;
67640;SDS011;54434;50.096;20.082;2023-05-07T01:51:27;20.10;;;10.50;;
67640;SDS011;54434;50.096;20.082;2023-05-07T01:54:05;18.60;;;9.70;;
67640;SDS011;54434;50.096;20.082;2023-05-07T01:56:42;19.90;;;11.20;;
67640;SDS011;54434;50.096;20.082;2023-05-07T01:59:21;18.70;;;10.50;;
67640;SDS011;54434;50.096;20.082;2023-05-07T02:01:58;15.40;;;9.80;;
67640;SDS011;54434;50.096;20.082;2023-05-07T02:04:35;14.10;;;9.20;;
67640;SDS011;54434;50.096;20.082;2023-05-07T02:07:12;14.30;;;8.50;;
67640;SDS011;54434;50.096;20.082;2023-05-07T02:09:49;13.00;;;7.80;;
67640;SDS011;54434;50.096;20.082;2023-05-07T02:12:25;13.10;;;7.60;;
67640;SDS011;54434;50.096;20.082;2023-05-07T02:15:02;14.30;;;8.10;;
67640;SDS011;54434;50.096;20.082;2023-05-07T02:18:01;15.70;;;8.00;;
67640;SDS011;54434;50.096;20.082;2023-05-07T02:20:39;13.80;;;8.00;;
67640;SDS011;54434;50.096;20.082;2023-05-07T02:23:16;17.50;;;8.30;;
67640;SDS011;54434;50.096;20.082;2023-05-07T02:25:52;14.20;;;8.00;;
67640;SDS011;54434;50.096;20.082;2023-05-07T02:28:29;12.20;;;7.80;;
67640;SDS011;54434;50.096;20.082;2023-05-07T02:31:09;16.30;;;8.50;;
67640;SDS011;54434;50.096;20.082;2023-05-07T02:33:46;12.50;;;8.00;;
67640;SDS011;54434;50.096;20.082;2023-05-07T02:36:23;14.60;;;7.80;;
67640;SDS011;54434;50.096;20.082;2023-05-07T02:39:07;13.40;;;8.10;;
67640;SDS011;54434;50.096;20.082;2023-05-07T02:41:44;11.80;;;7.80;;
67640;SDS011;54434;50.096;20.082;2023-05-07T02:44:20;11.80;;;7.40;;
67640;SDS011;54434;50.096;20.082;2023-05-07T02:46:57;11.80;;;6.80;;
67640;SDS011;54434;50.096;20.082;2023-05-07T02:49:34;11.10;;;6.20;;
67640;SDS011;54434;50.096;20.082;2023-05-07T02:52:12;11.90;;;6.10;;
67640;SDS011;54434;50.096;20.082;2023-05-07T02:54:49;12.80;;;6.30;;
67640;SDS011;54434;50.096;20.082;2023-05-07T02:57:25;10.30;;;5.90;;
67640;SDS011;54434;50.096;20.082;2023-05-07T03:00:12;9.10;;;5.40;;
67640;SDS011;54434;50.096;20.082;2023-05-07T03:02:57;9.40;;;5.30;;
67640;SDS011;54434;50.096;20.082;2023-05-07T03:05:34;8.50;;;5.00;;
67640;SDS011;54434;50.096;20.082;2023-05-07T03:08:11;8.80;;;4.80;;
67640;SDS011;54434;50.096;20.082;2023-05-07T03:10:48;8.20;;;4.80;;
67640;SDS011;54434;50.096;20.082;2023-05-07T03:13:25;9.00;;;4.80;;
67640;SDS011;54434;50.096;20.082;2023-05-07T03:16:02;10.00;;;4.20;;
67640;SDS011;54434;50.096;20.082;2023-05-07T03:18:39;8.10;;;4.60;;
67640;SDS011;54434;50.096;20.082;2023-05-07T03:21:15;6.80;;;4.20;;
67640;SDS011;54434;50.096;20.082;2023-05-07T03:23:51;5.90;;;4.10;;
67640;SDS011;54434;50.096;20.082;2023-05-07T03:26:28;6.00;;;3.90;;
67640;SDS011;54434;50.096;20.082;2023-05-07T03:29:04;7.20;;;4.60;;
67640;SDS011;54434;50.096;20.082;2023-05-07T03:31:41;6.50;;;3.80;;
67640;SDS011;54434;50.096;20.082;2023-05-07T03:34:17;8.30;;;4.80;;
67640;SDS011;54434;50.096;20.082;2023-05-07T03:36:55;6.40;;;4.10;;
67640;SDS011;54434;50.096;20.082;2023-05-07T03:39:32;7.40;;;4.90;;
67640;SDS011;54434;50.096;20.082;2023-05-07T03:42:09;8.20;;;4.40;;
67640;SDS011;54434;50.096;20.082;2023-05-07T03:44:46;7.50;;;4.30;;
67640;SDS011;54434;50.096;20.082;2023-05-07T03:47:23;7.70;;;3.90;;
67640;SDS011;54434;50.096;20.082;2023-05-07T03:50:00;6.70;;;4.00;;
67640;SDS011;54434;50.096;20.082;2023-05-07T03:52:37;8.50;;;4.20;;
67640;SDS011;54434;50.096;20.082;2023-05-07T03:55:14;7.30;;;3.90;;
67640;SDS011;54434;50.096;20.082;2023-05-07T03:57:55;6.50;;;4.00;;
67640;SDS011;54434;50.096;20.082;2023-05-07T04:00:32;6.60;;;3.60;;
67640;SDS011;54434;50.096;20.082;2023-05-07T04:03:19;6.70;;;3.70;;
67640;SDS011;54434;50.096;20.082;2023-05-07T04:05:55;5.70;;;3.70;;
67640;SDS011;54434;50.096;20.082;2023-05-07T04:08:32;6.20;;;3.90;;
67640;SDS011;54434;50.096;20.082;2023-05-07T04:11:09;6.00;;;3.60;;
67640;SDS011;54434;50.096;20.082;2023-05-07T04:13:45;6.50;;;3.80;;
67640;SDS011;54434;50.096;20.082;2023-05-07T04:16:23;5.40;;;3.70;;
67640;SDS011;54434;50.096;20.082;2023-05-07T04:18:59;6.60;;;3.50;;
67640;SDS011;54434;50.096;20.082;2023-05-07T04:21:36;6.20;;;3.30;;
67640;SDS011;54434;50.096;20.082;2023-05-07T04:24:13;6.20;;;3.40;;
67640;SDS011;54434;50.096;20.082;2023-05-07T04:26:50;5.20;;;3.10;;
67640;SDS011;54434;50.096;20.082;2023-05-07T04:29:28;4.40;;;2.80;;
67640;SDS011;54434;50.096;20.082;2023-05-07T04:32:06;4.90;;;3.10;;
67640;SDS011;54434;50.096;20.082;2023-05-07T04:34:43;5.80;;;2.70;;
67640;SDS011;54434;50.096;20.082;2023-05-07T04:37:20;5.40;;;2.80;;
67640;SDS011;54434;50.096;20.082;2023-05-07T04:39:56;4.80;;;2.50;;
67640;SDS011;54434;50.096;20.082;2023-05-07T04:42:34;5.20;;;2.80;;
67640;SDS011;54434;50.096;20.082;2023-05-07T04:45:12;4.70;;;2.80;;
67640;SDS011;54434;50.096;20.082;2023-05-07T04:47:48;4.90;;;2.50;;
67640;SDS011;54434;50.096;20.082;2023-05-07T04:50:25;6.30;;;2.90;;
67640;SDS011;54434;50.096;20.082;2023-05-07T04:53:03;3.90;;;2.60;;
67640;SDS011;54434;50.096;20.082;2023-05-07T04:55:40;5.40;;;2.70;;
67640;SDS011;54434;50.096;20.082;2023-05-07T04:58:16;7.60;;;2.70;;
67640;SDS011;54434;50.096;20.082;2023-05-07T05:00:53;4.50;;;2.40;;
67640;SDS011;54434;50.096;20.082;2023-05-07T05:03:29;6.60;;;2.80;;
67640;SDS011;54434;50.096;20.082;2023-05-07T05:06:07;4.50;;;2.60;;
67640;SDS011;54434;50.096;20.082;2023-05-07T05:08:44;5.20;;;2.80;;
67640;SDS011;54434;50.096;20.082;2023-05-07T05:11:20;3.90;;;2.50;;
67640;SDS011;54434;50.096;20.082;2023-05-07T05:13:58;4.00;;;2.40;;
67640;SDS011;54434;50.096;20.082;2023-05-07T05:16:35;3.40;;;2.10;;
67640;SDS011;54434;50.096;20.082;2023-05-07T05:19:12;5.10;;;2.20;;
67640;SDS011;54434;50.096;20.082;2023-05-07T05:21:49;3.70;;;2.40;;
67640;SDS011;54434;50.096;20.082;2023-05-07T05:24:26;3.90;;;2.30;;
67640;SDS011;54434;50.096;20.082;2023-05-07T05:27:02;4.40;;;2.60;;
67640;SDS011;54434;50.096;20.082;2023-05-07T05:29:39;4.60;;;2.60;;
67640;SDS011;54434;50.096;20.082;2023-05-07T05:32:16;5.20;;;2.80;;
67640;SDS011;54434;50.096;20.082;2023-05-07T05:34:52;4.80;;;2.70;;
67640;SDS011;54434;50.096;20.082;2023-05-07T05:37:29;4.40;;;2.40;;
67640;SDS011;54434;50.096;20.082;2023-05-07T05:40:08;4.30;;;2.80;;
67640;SDS011;54434;50.096;20.082;2023-05-07T05:42:46;4.20;;;2.40;;
67640;SDS011;54434;50.096;20.082;2023-05-07T05:45:22;3.90;;;2.40;;
67640;SDS011;54434;50.096;20.082;2023-05-07T05:48:01;4.40;;;2.50;;
67640;SDS011;54434;50.096;20.082;2023-05-07T05:50:38;3.80;;;2.50;;
67640;SDS011;54434;50.096;20.082;2023-05-07T05:53:16;5.50;;;3.30;;
67640;SDS011;54434;50.096;20.082;2023-05-07T05:55:53;5.60;;;2.80;;
67640;SDS011;54434;50.096;20.082;2023-05-07T05:58:30;5.40;;;3.00;;
67640;SDS011;54434;50.096;20.082;2023-05-07T06:01:09;4.40;;;2.50;;
67640;SDS011;54434;50.096;20.082;2023-05-07T06:03:45;6.50;;;2.90;;
67640;SDS011;54434;50.096;20.082;2023-05-07T06:06:21;4.30;;;2.50;;
67640;SDS011;54434;50.096;20.082;2023-05-07T06:08:59;7.00;;;2.90;;
67640;SDS011;54434;50.096;20.082;2023-05-07T06:11:41;6.40;;;2.90;;
67640;SDS011;54434;50.096;20.082;2023-05-07T06:14:18;4.90;;;2.80;;
67640;SDS011;54434;50.096;20.082;2023-05-07T06:16:54;5.20;;;2.60;;
67640;SDS011;54434;50.096;20.082;2023-05-07T06:19:32;4.90;;;2.80;;
67640;SDS011;54434;50.096;20.082;2023-05-07T06:22:09;5.40;;;3.00;;
67640;SDS011;54434;50.096;20.082;2023-05-07T06:24:45;5.50;;;3.00;;
67640;SDS011;54434;50.096;20.082;2023-05-07T06:27:22;5.30;;;2.60;;
67640;SDS011;54434;50.096;20.082;2023-05-07T06:29:59;4.40;;;2.60;;
67640;SDS011;54434;50.096;20.082;2023-05-07T06:32:36;4.30;;;2.40;;
67640;SDS011;54434;50.096;20.082;2023-05-07T06:35:13;4.50;;;2.30;;
67640;SDS011;54434;50.096;20.082;2023-05-07T06:37:49;6.00;;;2.80;;
67640;SDS011;54434;50.096;20.082;2023-05-07T06:40:29;4.30;;;2.50;;
67640;SDS011;54434;50.096;20.082;2023-05-07T06:43:06;4.00;;;2.50;;
67640;SDS011;54434;50.096;20.082;2023-05-07T06:46:18;4.50;;;2.40;;
67640;SDS011;54434;50.096;20.082;2023-05-07T06:48:56;3.80;;;2.30;;
67640;SDS011;54434;50.096;20.082;2023-05-07T06:51:33;4.40;;;2.40;;
67640;SDS011;54434;50.096;20.082;2023-05-07T06:54:10;4.90;;;2.50;;
67640;SDS011;54434;50.096;20.082;2023-05-07T06:56:46;5.10;;;3.00;;
67640;SDS011;54434;50.096;20.082;2023-05-07T06:59:24;5.80;;;2.90;;
67640;SDS011;54434;50.096;20.082;2023-05-07T07:02:01;5.40;;;2.60;;
67640;SDS011;54434;50.096;20.082;2023-05-07T07:04:37;4.10;;;2.60;;
67640;SDS011;54434;50.096;20.082;2023-05-07T07:07:16;5.90;;;3.30;;
67640;SDS011;54434;50.096;20.082;2023-05-07T07:09:53;4.50;;;2.70;;
67640;SDS011;54434;50.096;20.082;2023-05-07T07:12:30;5.20;;;2.80;;
67640;SDS011;54434;50.096;20.082;2023-05-07T07:15:08;5.90;;;2.90;;
67640;SDS011;54434;50.096;20.082;2023-05-07T07:17:45;7.20;;;3.30;;
67640;SDS011;54434;50.096;20.082;2023-05-07T07:20:23;5.50;;;2.70;;
67640;SDS011;54434;50.096;20.082;2023-05-07T07:23:00;6.20;;;2.60;;
67640;SDS011;54434;50.096;20.082;2023-05-07T07:25:36;7.10;;;2.80;;
67640;SDS011;54434;50.096;20.082;2023-05-07T07:28:13;5.50;;;2.90;;
67640;SDS011;54434;50.096;20.082;2023-05-07T07:30:49;5.00;;;2.50;;
67640;SDS011;54434;50.096;20.082;2023-05-07T07:33:26;4.00;;;2.20;;
67640;SDS011;54434;50.096;20.082;2023-05-07T07:36:02;4.30;;;2.40;;
67640;SDS011;54434;50.096;20.082;2023-05-07T07:38:40;7.60;;;3.90;;
67640;SDS011;54434;50.096;20.082;2023-05-07T07:41:16;5.40;;;3.10;;
67640;SDS011;54434;50.096;20.082;2023-05-07T07:43:53;9.20;;;5.10;;
67640;SDS011;54434;50.096;20.082;2023-05-07T07:46:29;6.60;;;3.30;;
67640;SDS011;54434;50.096;20.082;2023-05-07T07:49:06;5.20;;;2.90;;
67640;SDS011;54434;50.096;20.082;2023-05-07T07:51:42;5.00;;;2.90;;
67640;SDS011;54434;50.096;20.082;2023-05-07T07:54:19;5.90;;;2.60;;
67640;SDS011;54434;50.096;20.082;2023-05-07T07:56:55;4.90;;;2.70;;
67640;SDS011;54434;50.096;20.082;2023-05-07T07:59:32;5.90;;;3.40;;
67640;SDS011;54434;50.096;20.082;2023-05-07T08:02:09;15.30;;;8.10;;
67640;SDS011;54434;50.096;20.082;2023-05-07T08:04:45;5.60;;;2.90;;
67640;SDS011;54434;50.096;20.082;2023-05-07T08:07:23;5.50;;;2.90;;
67640;SDS011;54434;50.096;20.082;2023-05-07T08:10:00;4.90;;;3.10;;
67640;SDS011;54434;50.096;20.082;2023-05-07T08:12:37;5.50;;;3.00;;
67640;SDS011;54434;50.096;20.082;2023-05-07T08:15:15;4.80;;;2.70;;
67640;SDS011;54434;50.096;20.082;2023-05-07T08:17:52;3.90;;;2.70;;
67640;SDS011;54434;50.096;20.082;2023-05-07T08:20:31;4.70;;;2.80;;
67640;SDS011;54434;50.096;20.082;2023-05-07T08:23:14;6.20;;;2.90;;
67640;SDS011;54434;50.096;20.082;2023-05-07T08:25:51;5.50;;;3.00;;
67640;SDS011;54434;50.096;20.082;2023-05-07T08:28:28;5.00;;;2.80;;
67640;SDS011;54434;50.096;20.082;2023-05-07T08:31:05;7.90;;;3.20;;
67640;SDS011;54434;50.096;20.082;2023-05-07T08:33:43;4.70;;;3.00;;
67640;SDS011;54434;50.096;20.082;2023-05-07T08:36:19;6.40;;;3.50;;
67640;SDS011;54434;50.096;20.082;2023-05-07T08:38:56;5.10;;;3.30;;
67640;SDS011;54434;50.096;20.082;2023-05-07T08:41:34;4.90;;;3.00;;
67640;SDS011;54434;50.096;20.082;2023-05-07T08:44:13;6.20;;;3.10;;
67640;SDS011;54434;50.096;20.082;2023-05-07T08:46:53;5.60;;;3.60;;
67640;SDS011;54434;50.096;20.082;2023-05-07T08:49:32;13.20;;;8.00;;
67640;SDS011;54434;50.096;20.082;2023-05-07T08:52:10;7.00;;;3.60;;
67640;SDS011;54434;50.096;20.082;2023-05-07T08:54:48;5.30;;;3.40;;
67640;SDS011;54434;50.096;20.082;2023-05-07T08:57:24;5.80;;;3.20;;
67640;SDS011;54434;50.096;20.082;2023-05-07T09:00:02;5.70;;;3.20;;
67640;SDS011;54434;50.096;20.082;2023-05-07T09:02:41;5.50;;;3.30;;
67640;SDS011;54434;50.096;20.082;2023-05-07T09:05:19;5.70;;;3.40;;
67640;SDS011;54434;50.096;20.082;2023-05-07T09:07:58;5.10;;;2.90;;
67640;SDS011;54434;50.096;20.082;2023-05-07T09:10:37;9.70;;;5.20;;
67640;SDS011;54434;50.096;20.082;2023-05-07T09:13:14;6.10;;;3.50;;
67640;SDS011;54434;50.096;20.082;2023-05-07T09:15:52;5.10;;;2.90;;
67640;SDS011;54434;50.096;20.082;2023-05-07T09:18:29;5.20;;;3.30;;
67640;SDS011;54434;50.096;20.082;2023-05-07T09:21:06;15.10;;;7.40;;
67640;SDS011;54434;50.096;20.082;2023-05-07T09:23:46;6.10;;;3.50;;
67640;SDS011;54434;50.096;20.082;2023-05-07T09:26:26;5.20;;;3.10;;
67640;SDS011;54434;50.096;20.082;2023-05-07T09:29:02;6.40;;;3.50;;
67640;SDS011;54434;50.096;20.082;2023-05-07T09:31:41;6.10;;;3.30;;
67640;SDS011;54434;50.096;20.082;2023-05-07T09:34:19;5.70;;;3.20;;
67640;SDS011;54434;50.096;20.082;2023-05-07T09:36:56;7.10;;;3.60;;
67640;SDS011;54434;50.096;20.082;2023-05-07T09:39:43;6.50;;;3.60;;
67640;SDS011;54434;50.096;20.082;2023-05-07T09:42:27;6.30;;;3.60;;
67640;SDS011;54434;50.096;20.082;2023-05-07T09:45:09;7.00;;;3.90;;
67640;SDS011;54434;50.096;20.082;2023-05-07T09:47:49;6.00;;;3.70;;
67640;SDS011;54434;50.096;20.082;2023-05-07T09:50:32;7.20;;;3.30;;
67640;SDS011;54434;50.096;20.082;2023-05-07T09:53:17;6.80;;;3.80;;
67640;SDS011;54434;50.096;20.082;2023-05-07T09:55:56;7.10;;;3.50;;
67640;SDS011;54434;50.096;20.082;2023-05-07T09:58:38;7.10;;;3.80;;
67640;SDS011;54434;50.096;20.082;2023-05-07T10:01:22;7.90;;;4.10;;
67640;SDS011;54434;50.096;20.082;2023-05-07T10:04:03;6.30;;;3.70;;
67640;SDS011;54434;50.096;20.082;2023-05-07T10:06:42;6.30;;;3.60;;
67640;SDS011;54434;50.096;20.082;2023-05-07T10:09:19;8.00;;;4.90;;
67640;SDS011;54434;50.096;20.082;2023-05-07T10:11:57;6.90;;;3.80;;
67640;SDS011;54434;50.096;20.082;2023-05-07T10:14:36;6.90;;;4.20;;
67640;SDS011;54434;50.096;20.082;2023-05-07T10:17:15;6.30;;;3.70;;
67640;SDS011;54434;50.096;20.082;2023-05-07T10:19:54;10.90;;;6.50;;
67640;SDS011;54434;50.096;20.082;2023-05-07T10:22:36;6.20;;;3.90;;
67640;SDS011;54434;50.096;20.082;2023-05-07T10:25:20;6.10;;;3.60;;
67640;SDS011;54434;50.096;20.082;2023-05-07T10:28:05;6.30;;;3.60;;
67640;SDS011;54434;50.096;20.082;2023-05-07T10:30:58;6.00;;;3.80;;
67640;SDS011;54434;50.096;20.082;2023-05-07T10:33:48;7.00;;;3.60;;
67640;SDS011;54434;50.096;20.082;2023-05-07T10:36:27;7.30;;;4.20;;
67640;SDS011;54434;50.096;20.082;2023-05-07T10:39:06;6.30;;;3.30;;
67640;SDS011;54434;50.096;20.082;2023-05-07T10:41:43;6.00;;;3.50;;
67640;SDS011;54434;50.096;20.082;2023-05-07T10:44:30;5.90;;;3.20;;
67640;SDS011;54434;50.096;20.082;2023-05-07T10:47:12;5.70;;;3.80;;
67640;SDS011;54434;50.096;20.082;2023-05-07T10:50:27;7.70;;;4.00;;
67640;SDS011;54434;50.096;20.082;2023-05-07T10:56:38;6.90;;;3.30;;
67640;SDS011;54434;50.096;20.082;2023-05-07T10:59:39;5.20;;;3.10;;
67640;SDS011;54434;50.096;20.082;2023-05-07T11:02:23;19.20;;;11.70;;
67640;SDS011;54434;50.096;20.082;2023-05-07T11:05:44;6.80;;;4.20;;
67640;SDS011;54434;50.096;20.082;2023-05-07T11:11:48;7.10;;;3.40;;
67640;SDS011;54434;50.096;20.082;2023-05-07T11:14:47;5.90;;;3.30;;
67640;SDS011;54434;50.096;20.082;2023-05-07T11:17:29;5.80;;;3.40;;
67640;SDS011;54434;50.096;20.082;2023-05-07T11:20:12;6.00;;;3.40;;
67640;SDS011;54434;50.096;20.082;2023-05-07T11:22:57;6.80;;;3.50;;
67640;SDS011;54434;50.096;20.082;2023-05-07T11:25:49;5.20;;;3.10;;
67640;SDS011;54434;50.096;20.082;2023-05-07T11:28:37;5.00;;;2.80;;
67640;SDS011;54434;50.096;20.082;2023-05-07T11:31:22;6.30;;;2.90;;
67640;SDS011;54434;50.096;20.082;2023-05-07T11:34:01;5.30;;;2.90;;
67640;SDS011;54434;50.096;20.082;2023-05-07T11:36:43;4.90;;;2.70;;
67640;SDS011;54434;50.096;20.082;2023-05-07T11:39:29;4.40;;;2.70;;
67640;SDS011;54434;50.096;20.082;2023-05-07T11:42:08;3.50;;;2.40;;
67640;SDS011;54434;50.096;20.082;2023-05-07T11:45:03;5.20;;;3.00;;
67640;SDS011;54434;50.096;20.082;2023-05-07T11:47:42;6.00;;;2.80;;
67640;SDS011;54434;50.096;20.082;2023-05-07T11:50:19;4.40;;;2.80;;
67640;SDS011;54434;50.096;20.082;2023-05-07T11:52:56;5.70;;;3.00;;
67640;SDS011;54434;50.096;20.082;2023-05-07T11:55:33;4.70;;;2.80;;
67640;SDS011;54434;50.096;20.082;2023-05-07T11:58:11;6.00;;;2.90;;
67640;SDS011;54434;50.096;20.082;2023-05-07T12:00:55;4.40;;;2.30;;
67640;SDS011;54434;50.096;20.082;2023-05-07T12:03:32;4.70;;;2.60;;
67640;SDS011;54434;50.096;20.082;2023-05-07T12:06:12;4.60;;;2.80;;
67640;SDS011;54434;50.096;20.082;2023-05-07T12:08:50;4.80;;;2.90;;
67640;SDS011;54434;50.096;20.082;2023-05-07T12:11:28;4.80;;;3.00;;
67640;SDS011;54434;50.096;20.082;2023-05-07T12:14:05;4.90;;;2.70;;
67640;SDS011;54434;50.096;20.082;2023-05-07T12:16:45;6.60;;;3.10;;
67640;SDS011;54434;50.096;20.082;2023-05-07T12:19:25;4.60;;;2.70;;
67640;SDS011;54434;50.096;20.082;2023-05-07T12:22:03;6.90;;;3.80;;
67640;SDS011;54434;50.096;20.082;2023-05-07T12:24:48;5.60;;;3.20;;
67640;SDS011;54434;50.096;20.082;2023-05-07T12:27:32;6.10;;;3.40;;
67640;SDS011;54434;50.096;20.082;2023-05-07T12:30:15;5.40;;;3.10;;
67640;SDS011;54434;50.096;20.082;2023-05-07T12:32:55;5.60;;;3.30;;
67640;SDS011;54434;50.096;20.082;2023-05-07T12:35:36;4.90;;;2.90;;
67640;SDS011;54434;50.096;20.082;2023-05-07T12:38:16;5.20;;;3.00;;
67640;SDS011;54434;50.096;20.082;2023-05-07T12:40:55;6.80;;;3.30;;
67640;SDS011;54434;50.096;20.082;2023-05-07T12:43:32;5.30;;;3.20;;
67640;SDS011;54434;50.096;20.082;2023-05-07T12:46:09;7.10;;;3.20;;
67640;SDS011;54434;50.096;20.082;2023-05-07T12:48:47;5.70;;;3.40;;
67640;SDS011;54434;50.096;20.082;2023-05-07T12:51:24;5.40;;;3.20;;
67640;SDS011;54434;50.096;20.082;2023-05-07T12:54:02;6.30;;;3.50;;
67640;SDS011;54434;50.096;20.082;2023-05-07T12:56:40;5.30;;;3.10;;
67640;SDS011;54434;50.096;20.082;2023-05-07T12:59:17;6.20;;;3.50;;
67640;SDS011;54434;50.096;20.082;2023-05-07T13:01:54;6.20;;;3.30;;
67640;SDS011;54434;50.096;20.082;2023-05-07T13:04:31;4.70;;;3.20;;
67640;SDS011;54434;50.096;20.082;2023-05-07T13:07:08;5.10;;;3.10;;
67640;SDS011;54434;50.096;20.082;2023-05-07T13:09:45;6.70;;;3.10;;
67640;SDS011;54434;50.096;20.082;2023-05-07T13:12:23;6.20;;;3.40;;
67640;SDS011;54434;50.096;20.082;2023-05-07T13:14:59;5.40;;;3.50;;
67640;SDS011;54434;50.096;20.082;2023-05-07T13:17:36;5.00;;;3.00;;
67640;SDS011;54434;50.096;20.082;2023-05-07T13:20:14;6.60;;;3.50;;
67640;SDS011;54434;50.096;20.082;2023-05-07T13:22:51;6.10;;;3.50;;
67640;SDS011;54434;50.096;20.082;2023-05-07T13:25:27;5.70;;;3.30;;
67640;SDS011;54434;50.096;20.082;2023-05-07T13:28:04;6.30;;;3.80;;
67640;SDS011;54434;50.096;20.082;2023-05-07T13:30:44;6.90;;;3.50;;
67640;SDS011;54434;50.096;20.082;2023-05-07T13:33:20;6.00;;;3.80;;
67640;SDS011;54434;50.096;20.082;2023-05-07T13:35:57;6.40;;;3.80;;
67640;SDS011;54434;50.096;20.082;2023-05-07T13:38:34;6.90;;;4.00;;
67640;SDS011;54434;50.096;20.082;2023-05-07T13:41:10;7.50;;;3.90;;
67640;SDS011;54434;50.096;20.082;2023-05-07T13:43:48;7.80;;;4.00;;
67640;SDS011;54434;50.096;20.082;2023-05-07T13:46:24;6.50;;;3.80;;
67640;SDS011;54434;50.096;20.082;2023-05-07T13:49:01;7.50;;;4.30;;
67640;SDS011;54434;50.096;20.082;2023-05-07T13:51:38;5.90;;;3.80;;
67640;SDS011;54434;50.096;20.082;2023-05-07T13:54:14;6.50;;;4.10;;
67640;SDS011;54434;50.096;20.082;2023-05-07T13:56:51;6.20;;;4.00;;
67640;SDS011;54434;50.096;20.082;2023-05-07T13:59:29;6.60;;;3.70;;
67640;SDS011;54434;50.096;20.082;2023-05-07T14:02:06;5.70;;;3.80;;
67640;SDS011;54434;50.096;20.082;2023-05-07T14:04:43;8.00;;;3.90;;
67640;SDS011;54434;50.096;20.082;2023-05-07T14:07:20;7.20;;;4.30;;
67640;SDS011;54434;50.096;20.082;2023-05-07T14:09:57;6.70;;;4.00;;
67640;SDS011;54434;50.096;20.082;2023-05-07T14:12:36;6.50;;;4.20;;
67640;SDS011;54434;50.096;20.082;2023-05-07T14:15:14;7.50;;;4.10;;
67640;SDS011;54434;50.096;20.082;2023-05-07T14:17:51;7.60;;;4.20;;
67640;SDS011;54434;50.096;20.082;2023-05-07T14:20:28;9.30;;;4.30;;
67640;SDS011;54434;50.096;20.082;2023-05-07T14:23:05;8.10;;;4.40;;
67640;SDS011;54434;50.096;20.082;2023-05-07T14:25:42;6.50;;;4.30;;
67640;SDS011;54434;50.096;20.082;2023-05-07T14:28:21;6.40;;;4.00;;
67640;SDS011;54434;50.096;20.082;2023-05-07T14:30:58;8.20;;;4.70;;
67640;SDS011;54434;50.096;20.082;2023-05-07T14:33:36;9.90;;;4.60;;
67640;SDS011;54434;50.096;20.082;2023-05-07T14:36:14;8.40;;;4.60;;
67640;SDS011;54434;50.096;20.082;2023-05-07T14:38:53;8.20;;;4.00;;
67640;SDS011;54434;50.096;20.082;2023-05-07T14:41:32;6.60;;;4.20;;
67640;SDS011;54434;50.096;20.082;2023-05-07T14:44:10;6.40;;;4.10;;
67640;SDS011;54434;50.096;20.082;2023-05-07T14:46:46;11.20;;;4.30;;
67640;SDS011;54434;50.096;20.082;2023-05-07T14:49:23;7.00;;;4.00;;
67640;SDS011;54434;50.096;20.082;2023-05-07T14:52:01;7.30;;;4.70;;
67640;SDS011;54434;50.096;20.082;2023-05-07T14:54:39;9.50;;;4.50;;
67640;SDS011;54434;50.096;20.082;2023-05-07T14:57:16;5.90;;;3.90;;
67640;SDS011;54434;50.096;20.082;2023-05-07T14:59:53;8.30;;;4.60;;
67640;SDS011;54434;50.096;20.082;2023-05-07T15:02:30;6.20;;;4.00;;
67640;SDS011;54434;50.096;20.082;2023-05-07T15:05:10;6.70;;;4.10;;
67640;SDS011;54434;50.096;20.082;2023-05-07T15:07:48;7.30;;;4.10;;
67640;SDS011;54434;50.096;20.082;2023-05-07T15:10:25;6.50;;;4.40;;
67640;SDS011;54434;50.096;20.082;2023-05-07T15:13:02;8.40;;;4.80;;
67640;SDS011;54434;50.096;20.082;2023-05-07T15:15:39;7.70;;;4.90;;
67640;SDS011;54434;50.096;20.082;2023-05-07T15:18:17;7.00;;;4.80;;
67640;SDS011;54434;50.096;20.082;2023-05-07T15:20:58;7.60;;;4.00;;
67640;SDS011;54434;50.096;20.082;2023-05-07T15:23:34;7.80;;;4.50;;
67640;SDS011;54434;50.096;20.082;2023-05-07T15:26:11;9.40;;;5.40;;
67640;SDS011;54434;50.096;20.082;2023-05-07T15:28:48;8.60;;;4.90;;
67640;SDS011;54434;50.096;20.082;2023-05-07T15:31:25;8.20;;;5.30;;
67640;SDS011;54434;50.096;20.082;2023-05-07T15:34:04;8.40;;;5.10;;
67640;SDS011;54434;50.096;20.082;2023-05-07T15:36:42;8.20;;;5.00;;
67640;SDS011;54434;50.096;20.082;2023-05-07T15:39:18;9.70;;;5.20;;
67640;SDS011;54434;50.096;20.082;2023-05-07T15:41:57;7.90;;;4.60;;
67640;SDS011;54434;50.096;20.082;2023-05-07T15:44:35;9.80;;;4.70;;